Time;durP1;ratioP1;P1;durP2;ratioP2;P2;SDS_P1;SDS_P2;PMS_P1;PMS_P2;Temp;Humidity;BMP_temperature;BMP_pressure;BME280_temperature;BME280_humidity;BME280_pressure;Samples;Min_cycle;Max_cycle;Signal;HPM_P1;HPM_P2
2023/09/12 00:00:16;;;;;;;16.10;13.10;;;;;;;20.30;100.00;101449.75;4894896;29;20453;-73
2023/09/12 00:02:41;;;;;;;16.07;12.90;;;;;;;20.42;100.00;101459.75;4881817;29;20703;-73
2023/09/12 00:05:07;;;;;;;16.37;12.57;;;;;;;19.60;100.00;101369.38;4878932;29;20297;-73
2023/09/12 00:07:32;;;;;;;16.13;12.83;;;;;;;20.59;100.00;101501.44;4880312;29;20638;-73
2023/09/12 00:09:58;;;;;;;13.87;12.17;;;;;;;20.46;100.00;101482.72;4879105;29;20198;-73
2023/09/12 00:12:26;;;;;;;14.73;12.90;;;;;;;20.42;100.00;101484.25;4878480;29;20217;-73
2023/09/12 00:14:52;;;;;;;14.17;12.67;;;;;;;20.30;100.00;101500.69;4879503;29;20348;-73
2023/09/12 00:17:17;;;;;;;14.83;12.60;;;;;;;20.39;100.00;101563.78;4894502;29;21515;-74
2023/09/12 00:19:43;;;;;;;13.53;11.90;;;;;;;20.39;100.00;101569.22;4876903;29;20188;-73
2023/09/12 00:22:08;;;;;;;16.87;15.10;;;;;;;20.33;100.00;101579.19;4880088;29;20617;-73
2023/09/12 00:27:04;;;;;;;15.17;13.57;;;;;;;19.90;100.00;101519.88;4940999;28;20246;-69
2023/09/12 00:29:30;;;;;;;16.00;14.37;;;;;;;20.01;100.00;101565.28;4944816;28;20467;-69
2023/09/12 00:31:55;;;;;;;19.03;15.40;;;;;;;20.01;100.00;101622.47;4948146;28;20798;-69
2023/09/12 00:34:21;;;;;;;18.50;15.77;;;;;;;19.87;100.00;101602.84;4947675;28;20198;-69
2023/09/12 00:36:46;;;;;;;19.30;16.90;;;;;;;19.85;100.00;101654.03;4948027;28;20656;-69
2023/09/12 00:39:11;;;;;;;20.37;18.27;;;;;;;19.52;100.00;101695.44;4951865;28;20179;-69
2023/09/12 00:41:37;;;;;;;17.87;15.90;;;;;;;20.06;100.00;101751.38;4952136;28;20187;-69
2023/09/12 00:44:02;;;;;;;19.03;15.63;;;;;;;20.21;100.00;101725.53;4950646;28;20214;-69
2023/09/12 00:46:28;;;;;;;18.67;15.30;;;;;;;20.28;100.00;101704.44;4951331;28;20190;-69
2023/09/12 00:48:55;;;;;;;18.70;16.53;;;;;;;20.35;100.00;101666.16;4951427;28;20710;-69
2023/09/12 00:51:22;;;;;;;19.00;15.50;;;;;;;20.41;100.00;101637.94;4951562;28;20195;-69
2023/09/12 00:53:48;;;;;;;23.33;17.50;;;;;;;20.33;100.00;101629.06;4949871;28;20474;-69
2023/09/12 00:56:13;;;;;;;19.17;16.10;;;;;;;20.11;100.00;101624.56;4950893;28;20431;-69
2023/09/12 00:58:39;;;;;;;17.33;15.30;;;;;;;20.21;100.00;101620.13;4951185;28;20202;-69
2023/09/12 01:01:05;;;;;;;17.23;14.40;;;;;;;20.22;100.00;101599.16;4951327;28;20706;-69
2023/09/12 01:03:31;;;;;;;17.60;15.30;;;;;;;20.27;100.00;101605.53;4950777;28;20478;-69
2023/09/12 01:05:59;;;;;;;21.53;17.67;;;;;;;19.74;100.00;101597.72;4942858;28;25062;-69
2023/09/12 01:08:24;;;;;;;19.67;16.67;;;;;;;19.74;100.00;101644.00;4945918;28;21200;-69
2023/09/12 01:10:52;;;;;;;17.83;15.37;;;;;;;20.07;100.00;101655.00;4949718;28;20541;-69
2023/09/12 01:13:18;;;;;;;19.33;14.97;;;;;;;20.23;100.00;101649.88;4945962;28;20689;-70
2023/09/12 01:15:44;;;;;;;17.90;15.73;;;;;;;19.94;100.00;101624.53;4946954;28;20497;-69
2023/09/12 01:18:10;;;;;;;17.27;15.27;;;;;;;20.02;100.00;101621.41;4948338;28;20541;-69
2023/09/12 01:20:39;;;;;;;17.13;15.33;;;;;;;19.78;100.00;101645.97;4948788;28;20194;-69
2023/09/12 01:23:22;;;;;;;20.00;16.37;;;;;;;19.86;100.00;101710.94;4947248;28;20223;-69
2023/09/12 01:26:05;;;;;;;17.57;15.77;;;;;;;19.92;100.00;101763.59;4948477;28;20960;-69
2023/09/12 01:28:34;;;;;;;19.47;15.93;;;;;;;19.83;100.00;101808.59;4948962;28;20440;-69
2023/09/12 01:31:02;;;;;;;18.57;16.50;;;;;;;19.47;100.00;101780.53;4946940;28;20445;-69
2023/09/12 01:33:28;;;;;;;18.30;15.47;;;;;;;19.99;100.00;101859.63;4948546;28;20526;-69
2023/09/12 01:35:54;;;;;;;18.27;15.70;;;;;;;19.97;100.00;101856.31;4949408;28;20457;-69
2023/09/12 01:38:20;;;;;;;19.73;16.00;;;;;;;20.17;100.00;101857.84;4949828;28;20275;-69
2023/09/12 01:40:54;;;;;;;17.17;14.23;;;;;;;19.80;100.00;101801.72;4947433;28;20446;-69
2023/09/12 01:43:23;;;;;;;20.17;17.33;;;;;;;19.80;100.00;101866.25;4949202;28;25167;-69
2023/09/12 01:45:53;;;;;;;19.27;15.23;;;;;;;20.07;100.00;101864.69;4947240;28;20447;-69
2023/09/12 01:48:21;;;;;;;18.90;15.40;;;;;;;20.10;100.00;101857.94;4949111;28;25111;-69
2023/09/12 01:50:48;;;;;;;17.40;14.20;;;;;;;19.97;100.00;101810.00;4948070;28;20809;-69
2023/09/12 01:53:14;;;;;;;17.80;15.30;;;;;;;20.16;100.00;101840.66;4948118;28;20459;-69
2023/09/12 01:55:42;;;;;;;16.67;14.80;;;;;;;20.03;100.00;101817.22;4949053;28;20487;-69
2023/09/12 01:58:07;;;;;;;16.50;14.80;;;;;;;20.06;100.00;101840.44;4947588;28;20465;-69
2023/09/12 02:00:33;;;;;;;17.47;15.37;;;;;;;19.99;100.00;101835.13;4947387;28;20451;-69
2023/09/12 02:02:58;;;;;;;18.53;16.50;;;;;;;19.62;100.00;101812.72;4947573;28;20209;-69
2023/09/12 02:05:24;;;;;;;20.50;17.13;;;;;;;19.98;100.00;101847.06;4948474;28;20213;-69
2023/09/12 02:07:49;;;;;;;16.07;14.33;;;;;;;19.92;100.00;101823.50;4947496;28;20203;-69
2023/09/12 02:10:15;;;;;;;16.67;14.97;;;;;;;20.11;100.00;101842.47;4946856;28;20187;-69
2023/09/12 02:12:41;;;;;;;17.87;15.60;;;;;;;20.17;100.00;101849.66;4948546;28;20214;-69
2023/09/12 02:15:07;;;;;;;22.80;17.53;;;;;;;20.16;100.00;101835.19;4946475;28;25103;-69
2023/09/12 02:17:33;;;;;;;17.53;15.60;;;;;;;19.93;100.00;101797.09;4945303;28;20674;-69
2023/09/12 02:20:01;;;;;;;20.13;16.30;;;;;;;19.88;100.00;101821.50;4945109;28;20446;-69
2023/09/12 02:22:26;;;;;;;18.47;16.47;;;;;;;19.97;100.00;101820.91;4946345;28;20196;-69
2023/09/12 02:24:51;;;;;;;17.50;15.53;;;;;;;19.86;100.00;101838.06;4945885;28;20472;-69
2023/09/12 02:27:17;;;;;;;19.87;17.10;;;;;;;19.37;100.00;101826.50;4944868;28;20286;-69
2023/09/12 02:29:43;;;;;;;20.97;17.80;;;;;;;19.49;100.00;101829.25;4948927;28;20659;-69
2023/09/12 02:32:09;;;;;;;19.40;17.40;;;;;;;19.95;100.00;101899.28;4949703;28;20565;-69
2023/09/12 02:34:35;;;;;;;20.33;18.13;;;;;;;19.69;100.00;101848.00;4949122;28;20770;-69
2023/09/12 02:37:00;;;;;;;20.07;17.97;;;;;;;19.93;100.00;101909.59;4948380;28;25184;-69
2023/09/12 02:39:26;;;;;;;21.53;18.40;;;;;;;19.32;100.00;101880.78;4961548;28;20183;-70
2023/09/12 02:41:51;;;;;;;24.07;19.77;;;;;;;19.38;100.00;101929.66;4949711;28;20200;-69
2023/09/12 02:44:17;;;;;;;20.20;18.00;;;;;;;19.94;100.00;101992.91;4949365;28;20227;-69
2023/09/12 02:46:42;;;;;;;22.70;19.20;;;;;;;19.62;100.00;101970.56;4949569;28;20255;-69
2023/09/12 02:49:08;;;;;;;23.33;20.60;;;;;;;19.86;100.00;101991.34;4949545;28;20589;-69
2023/09/12 02:51:33;;;;;;;21.17;18.97;;;;;;;19.91;100.00;101996.13;4949985;28;21075;-69
2023/09/12 02:53:59;;;;;;;24.50;21.80;;;;;;;19.82;100.00;101994.78;4963813;28;20241;-69
2023/09/12 02:56:24;;;;;;;22.70;20.27;;;;;;;19.32;100.00;101963.19;4948655;28;20638;-69
2023/09/12 02:58:50;;;;;;;28.07;22.93;;;;;;;19.49;100.00;101995.22;4949933;28;20197;-69
2023/09/12 03:01:19;;;;;;;22.00;18.90;;;;;;;19.61;100.00;102004.25;4948047;28;20492;-69
2023/09/12 03:03:50;;;;;;;26.37;22.90;;;;;;;19.39;100.00;102031.97;4949200;28;20293;-69
2023/09/12 03:06:16;;;;;;;27.10;24.27;;;;;;;19.29;100.00;102052.59;4949005;28;20431;-69
2023/09/12 03:08:43;;;;;;;25.80;23.10;;;;;;;19.29;100.00;102085.25;4947293;28;25117;-69
2023/09/12 03:11:09;;;;;;;24.60;22.00;;;;;;;19.47;100.00;102096.16;4946416;28;20443;-69
2023/09/12 03:13:35;;;;;;;27.90;22.87;;;;;;;19.13;100.00;102060.31;4947803;28;21309;-69
2023/09/12 03:16:01;;;;;;;26.27;21.80;;;;;;;19.47;100.00;102106.16;4946383;28;20451;-70
2023/09/12 03:18:26;;;;;;;30.37;24.13;;;;;;;19.36;100.00;102083.28;4961757;28;20510;-69
2023/09/12 03:20:52;;;;;;;26.93;22.10;;;;;;;19.43;100.00;102084.03;4944174;28;25088;-69
2023/09/12 03:23:19;;;;;;;27.70;24.90;;;;;;;19.19;100.00;102062.13;4945770;28;24981;-69
2023/09/12 03:25:44;;;;;;;29.23;23.27;;;;;;;19.01;100.00;102006.94;4946626;28;20763;-69
2023/09/12 03:28:10;;;;;;;31.73;25.23;;;;;;;19.40;100.00;102093.47;4945598;28;20534;-69
2023/09/12 03:30:37;;;;;;;24.97;22.27;;;;;;;19.01;100.00;101999.59;4947563;28;20189;-69
2023/09/12 03:33:03;;;;;;;26.33;23.53;;;;;;;19.45;100.00;102086.53;4946233;28;20242;-69
2023/09/12 03:35:29;;;;;;;25.33;22.60;;;;;;;19.44;100.00;102088.44;4946531;28;25126;-69
2023/09/12 03:37:55;;;;;;;24.50;21.83;;;;;;;19.44;100.00;102077.56;4944489;28;25210;-69
2023/09/12 03:40:20;;;;;;;27.00;22.13;;;;;;;19.53;100.00;102075.34;4947797;28;20559;-69
2023/09/12 03:42:46;;;;;;;25.83;21.53;;;;;;;19.04;100.00;101971.94;4945963;28;25098;-70
2023/09/12 03:45:11;;;;;;;25.00;20.70;;;;;;;19.55;100.00;102074.03;4943315;28;20208;-69
2023/09/12 03:47:37;;;;;;;28.07;23.33;;;;;;;18.47;100.00;101953.09;4943805;28;20222;-69
2023/09/12 03:50:03;;;;;;;25.00;22.30;;;;;;;18.35;100.00;101946.75;4946793;28;25116;-69
2023/09/12 03:52:29;;;;;;;24.67;21.43;;;;;;;18.45;100.00;101963.34;4945752;28;20626;-69
2023/09/12 03:54:54;;;;;;;32.27;24.10;;;;;;;19.02;100.00;102074.66;4959418;28;20448;-69
2023/09/12 03:57:20;;;;;;;26.83;23.50;;;;;;;18.74;100.00;101974.56;4945374;28;20187;-69
2023/09/12 03:59:46;;;;;;;25.10;22.50;;;;;;;18.40;100.00;101861.84;4947615;28;20588;-69
2023/09/12 04:02:12;;;;;;;24.90;22.13;;;;;;;18.23;100.00;101801.88;4944147;28;25078;-69
2023/09/12 04:04:38;;;;;;;27.13;21.73;;;;;;;18.81;100.00;101898.41;4961917;28;20826;-69
2023/09/12 04:07:03;;;;;;;25.77;22.93;;;;;;;18.39;100.00;101811.31;4946126;28;20203;-69
2023/09/12 04:09:29;;;;;;;28.10;25.10;;;;;;;18.77;100.00;101804.78;4944677;28;20205;-69
2023/09/12 04:11:54;;;;;;;29.27;24.10;;;;;;;18.18;100.00;101628.78;4946475;28;20187;-69
2023/09/12 04:14:21;;;;;;;25.73;22.80;;;;;;;18.03;100.00;101574.91;4949694;28;25158;-69
2023/09/12 04:16:46;;;;;;;24.63;21.27;;;;;;;19.10;100.00;101688.22;4950123;28;20204;-69
2023/09/12 04:19:14;;;;;;;26.57;21.77;;;;;;;18.45;100.00;101560.47;4948430;28;20449;-69
2023/09/12 04:21:39;;;;;;;29.83;24.57;;;;;;;18.28;100.00;101560.31;4948669;28;20188;-70
2023/09/12 04:24:05;;;;;;;25.43;22.70;;;;;;;18.64;100.00;101593.84;4948498;28;20506;-70
2023/09/12 04:26:31;;;;;;;25.90;21.57;;;;;;;19.02;100.00;101693.19;4949278;28;20874;-71
2023/09/12 04:28:56;;;;;;;29.20;25.30;;;;;;;18.82;100.00;101688.06;4951809;28;20494;-69
2023/09/12 04:31:22;;;;;;;25.03;22.33;;;;;;;18.86;100.00;101662.91;4951449;28;25064;-69
2023/09/12 04:33:47;;;;;;;25.33;22.60;;;;;;;19.02;100.00;101694.00;4950221;28;20680;-69
2023/09/12 04:36:12;;;;;;;27.13;22.93;;;;;;;19.09;100.00;101692.03;4949408;28;25076;-69
2023/09/12 04:38:38;;;;;;;27.10;24.20;;;;;;;18.90;100.00;101674.13;4948491;28;20215;-69
2023/09/12 04:41:05;;;;;;;33.07;28.67;;;;;;;18.83;100.00;101709.56;4949226;28;25131;-69
2023/09/12 04:43:32;;;;;;;30.97;26.10;;;;;;;18.09;100.00;101588.63;4949274;28;20211;-69
2023/09/12 04:45:57;;;;;;;28.53;25.43;;;;;;;18.70;100.00;101688.81;4948756;28;20821;-69
2023/09/12 04:48:23;;;;;;;29.50;26.30;;;;;;;18.95;100.00;101687.88;4946911;28;25090;-69
2023/09/12 04:50:48;;;;;;;31.03;26.00;;;;;;;18.79;100.00;101666.78;4949235;28;20563;-69
2023/09/12 04:53:14;;;;;;;31.20;25.23;;;;;;;18.38;100.00;101584.22;4964628;28;25134;-69
2023/09/12 04:55:39;;;;;;;26.27;23.33;;;;;;;19.17;100.00;101664.47;4951738;28;20196;-69
2023/09/12 04:58:05;;;;;;;32.43;26.07;;;;;;;18.90;100.00;101658.66;4951079;28;20198;-69
2023/09/12 05:00:32;;;;;;;28.47;24.07;;;;;;;18.94;100.00;101648.13;4951037;28;20316;-68
2023/09/12 05:02:57;;;;;;;27.83;24.93;;;;;;;18.03;100.00;101519.78;4950993;28;20459;-70
2023/09/12 05:05:23;;;;;;;29.77;24.80;;;;;;;18.55;100.00;101616.97;4952067;28;21025;-70
2023/09/12 05:07:48;;;;;;;25.93;22.80;;;;;;;18.97;100.00;101648.47;4950691;28;20203;-69
2023/09/12 05:10:14;;;;;;;26.47;23.57;;;;;;;18.92;100.00;101653.81;4951312;28;20203;-69
2023/09/12 05:12:39;;;;;;;30.43;25.07;;;;;;;18.82;100.00;101658.16;4950757;28;20210;-70
2023/09/12 05:15:05;;;;;;;27.43;23.03;;;;;;;18.83;100.00;101671.50;4950083;28;20214;-70
2023/09/12 05:17:31;;;;;;;26.50;22.70;;;;;;;18.64;100.00;101640.84;4951093;28;20195;-69
2023/09/12 05:19:56;;;;;;;23.87;20.83;;;;;;;18.88;100.00;101679.78;4951594;28;20258;-70
2023/09/12 05:22:22;;;;;;;22.83;20.43;;;;;;;18.97;100.00;101674.84;4949632;28;20188;-70
2023/09/12 05:24:50;;;;;;;24.03;21.07;;;;;;;19.13;100.00;101687.75;4949077;28;20210;-70
2023/09/12 05:27:15;;;;;;;24.90;20.70;;;;;;;19.06;100.00;101678.03;4950702;28;20227;-70
2023/09/12 05:29:40;;;;;;;25.50;20.40;;;;;;;19.12;100.00;101694.28;4951314;28;20433;-69
2023/09/12 05:32:06;;;;;;;25.10;20.83;;;;;;;19.07;100.00;101701.47;4963100;28;20534;-69
2023/09/12 05:34:31;;;;;;;24.07;19.40;;;;;;;19.02;100.00;101707.59;4949110;28;20204;-69
2023/09/12 05:36:57;;;;;;;30.83;22.50;;;;;;;18.14;100.00;101614.03;4949108;28;20200;-70
2023/09/12 05:39:23;;;;;;;26.30;22.03;;;;;;;18.35;100.00;101620.00;4950257;28;20195;-70
2023/09/12 05:41:49;;;;;;;22.57;18.77;;;;;;;19.06;100.00;101722.38;4950963;28;20685;-70
2023/09/12 05:44:17;;;;;;;23.10;19.70;;;;;;;18.50;100.00;101644.84;4963357;28;20221;-70
2023/09/12 05:46:48;;;;;;;26.37;17.40;;;;;;;18.72;100.00;101656.00;4951322;28;20440;-70
2023/09/12 05:49:14;;;;;;;19.80;17.50;;;;;;;19.44;100.00;101789.16;4950654;28;20449;-69
2023/09/12 05:51:40;;;;;;;24.37;20.73;;;;;;;18.30;100.00;101697.53;4950328;28;20428;-70
2023/09/12 05:54:06;;;;;;;22.70;20.10;;;;;;;18.49;100.00;101732.81;4961792;28;20461;-70
2023/09/12 05:56:31;;;;;;;19.50;17.50;;;;;;;19.05;100.00;101796.03;4963054;28;20553;-70
2023/09/12 05:58:57;;;;;;;24.73;19.50;;;;;;;18.64;100.00;101773.16;4964771;28;20837;-70
2023/09/12 06:01:22;;;;;;;24.30;20.13;;;;;;;18.76;100.00;101782.22;4948099;28;20186;-70
2023/09/12 06:03:47;;;;;;;22.47;19.90;;;;;;;18.71;100.00;101782.88;4951053;28;25077;-70
2023/09/12 06:06:14;;;;;;;19.53;17.40;;;;;;;18.94;100.00;101778.63;4965916;28;20189;-70
2023/09/12 06:08:39;;;;;;;21.00;17.80;;;;;;;19.00;100.00;101772.25;4950048;28;20659;-70
2023/09/12 06:11:04;;;;;;;20.40;17.13;;;;;;;18.87;100.00;101737.13;4944570;28;25120;-70
2023/09/12 06:13:32;;;;;;;21.70;18.40;;;;;;;19.31;100.00;101759.44;4948658;28;25070;-70
2023/09/12 06:15:58;;;;;;;21.13;17.60;;;;;;;18.46;100.00;101665.38;4947118;29;25070;-70
2023/09/12 06:18:24;;;;;;;21.60;18.77;;;;;;;18.73;100.00;101767.19;4949451;28;20460;-70
2023/09/12 06:20:49;;;;;;;23.50;18.80;;;;;;;18.73;100.00;101780.78;4948911;28;20193;-70
2023/09/12 06:23:14;;;;;;;21.50;18.60;;;;;;;18.61;100.00;101769.03;4949377;28;20471;-70
2023/09/12 06:25:40;;;;;;;19.27;17.23;;;;;;;18.94;100.00;101759.59;4940987;28;20998;-70
2023/09/12 06:28:08;;;;;;;19.90;15.93;;;;;;;19.18;100.00;101774.91;4949446;28;25081;-70
2023/09/12 06:30:33;;;;;;;20.80;17.83;;;;;;;19.23;100.00;101771.47;4964939;28;20603;-70
2023/09/12 06:32:59;;;;;;;20.93;17.50;;;;;;;19.46;100.00;101787.00;4948285;28;20475;-70
2023/09/12 06:35:25;;;;;;;19.47;16.73;;;;;;;19.15;100.00;101759.06;4950108;28;20682;-70
2023/09/12 06:37:50;;;;;;;19.70;17.17;;;;;;;19.43;100.00;101806.50;4951084;28;20187;-70
2023/09/12 06:40:16;;;;;;;22.93;16.97;;;;;;;19.40;100.00;101812.44;4948965;28;20193;-70
2023/09/12 06:42:41;;;;;;;19.90;17.17;;;;;;;19.39;100.00;101814.31;4949993;28;20208;-70
2023/09/12 06:45:07;;;;;;;20.33;18.13;;;;;;;19.09;100.00;101772.75;4949089;28;25276;-69
2023/09/12 06:47:33;;;;;;;19.83;16.83;;;;;;;19.14;100.00;101813.66;4950125;28;20700;-70
2023/09/12 06:49:58;;;;;;;20.17;16.83;;;;;;;19.54;100.00;101826.66;4949075;28;25055;-70
2023/09/12 06:52:23;;;;;;;19.30;16.37;;;;;;;19.58;100.00;101836.81;4947220;28;25071;-71
2023/09/12 06:54:49;;;;;;;17.90;15.77;;;;;;;19.49;100.00;101840.13;4948807;28;25122;-71
2023/09/12 06:57:14;;;;;;;22.10;18.20;;;;;;;19.55;100.00;101831.03;4949440;28;20196;-71
2023/09/12 06:59:40;;;;;;;20.13;17.57;;;;;;;19.77;100.00;101861.25;4949548;28;25092;-71
2023/09/12 07:02:05;;;;;;;20.47;17.10;;;;;;;19.46;100.00;101841.41;4949215;28;20778;-71
2023/09/12 07:04:30;;;;;;;19.17;15.80;;;;;;;19.66;100.00;101864.81;4950700;28;20214;-72
2023/09/12 07:06:56;;;;;;;22.40;16.00;;;;;;;19.88;100.00;101901.28;4949657;28;25076;-72
2023/09/12 07:09:21;;;;;;;19.47;15.83;;;;;;;19.81;100.00;101909.53;4946851;28;25161;-69
2023/09/12 07:11:48;;;;;;;23.70;18.00;;;;;;;19.34;100.00;101849.56;4945971;28;20286;-69
2023/09/12 07:14:13;;;;;;;20.47;17.27;;;;;;;19.74;100.00;101927.06;4947671;28;25058;-69
2023/09/12 07:16:39;;;;;;;20.43;16.67;;;;;;;19.06;100.00;101816.72;4948092;28;25102;-69
2023/09/12 07:19:04;;;;;;;18.40;16.13;;;;;;;19.35;100.00;101839.50;4947105;28;25075;-69
2023/09/12 07:21:31;;;;;;;19.87;17.20;;;;;;;19.34;100.00;101848.72;4950315;28;20195;-69
2023/09/12 07:23:57;;;;;;;20.23;17.50;;;;;;;19.99;100.00;101927.69;4948659;28;25104;-69
2023/09/12 07:26:22;;;;;;;21.90;19.50;;;;;;;19.99;100.00;101952.22;4948482;28;25139;-68
2023/09/12 07:28:48;;;;;;;18.70;16.70;;;;;;;19.97;100.00;101962.50;4949156;28;25060;-69
2023/09/12 07:31:14;;;;;;;24.50;19.70;;;;;;;19.44;100.00;101876.22;4949246;28;25127;-69
2023/09/12 07:33:40;;;;;;;20.90;17.37;;;;;;;19.60;100.00;101886.41;4947087;28;25168;-69
2023/09/12 07:36:06;;;;;;;19.37;17.00;;;;;;;20.15;100.00;101964.28;4946538;28;25141;-69
2023/09/12 07:38:32;;;;;;;19.80;16.03;;;;;;;19.46;100.00;101855.03;4948403;28;25142;-69
2023/09/12 07:40:58;;;;;;;21.37;19.07;;;;;;;19.17;100.00;101873.03;4946655;28;25063;-69
2023/09/12 07:43:27;;;;;;;23.70;17.03;;;;;;;19.92;100.00;101947.94;4948375;28;25108;-69
2023/09/12 07:45:57;;;;;;;19.17;16.40;;;;;;;19.90;100.00;101936.44;4948639;28;25132;-68
2023/09/12 07:48:22;;;;;;;19.20;16.03;;;;;;;20.14;100.00;101948.19;4963436;28;25100;-69
2023/09/12 07:50:48;;;;;;;24.70;18.37;;;;;;;20.26;100.00;101962.66;4961864;28;25188;-69
2023/09/12 07:53:13;;;;;;;24.67;19.20;;;;;;;19.86;100.00;101944.25;4947665;28;20207;-69
2023/09/12 07:55:46;;;;;;;20.97;18.20;;;;;;;19.84;100.00;101938.19;4948062;28;20440;-69
2023/09/12 07:58:15;;;;;;;18.43;16.07;;;;;;;20.11;100.00;101959.56;4947979;28;25106;-69
2023/09/12 08:00:41;;;;;;;19.03;17.00;;;;;;;19.84;100.00;101914.50;4946442;28;20507;-69
2023/09/12 08:03:07;;;;;;;20.50;16.50;;;;;;;19.73;100.00;101904.47;4946903;28;20488;-69
2023/09/12 08:05:32;;;;;;;26.53;21.23;;;;;;;19.89;100.00;101995.50;4954777;23;25138;-72
2023/09/12 08:07:57;;;;;;;27.47;21.43;;;;;;;19.39;100.00;101919.59;4931122;29;20198;-73
2023/09/12 08:10:23;;;;;;;27.20;22.67;;;;;;;19.18;100.00;101913.63;4943850;28;20243;-73
2023/09/12 08:12:49;;;;;;;25.10;19.33;;;;;;;19.45;100.00;101896.91;4931090;29;20216;-73
2023/09/12 08:15:14;;;;;;;28.20;22.97;;;;;;;19.83;100.00;101994.53;4930409;29;25074;-73
2023/09/12 08:17:40;;;;;;;27.90;22.37;;;;;;;20.00;100.00;102015.66;4931952;29;20664;-73
2023/09/12 08:20:12;;;;;;;26.77;22.30;;;;;;;19.38;100.00;101916.06;4931087;29;25136;-73
2023/09/12 08:22:38;;;;;;;29.60;24.80;;;;;;;19.17;100.00;101871.13;4929618;29;25088;-73
2023/09/12 08:25:04;;;;;;;30.90;26.10;;;;;;;19.16;100.00;101857.78;4929673;29;20489;-73
2023/09/12 08:27:30;;;;;;;32.60;27.13;;;;;;;19.43;100.00;101893.59;4930559;29;20436;-74
2023/09/12 08:29:55;;;;;;;28.13;25.03;;;;;;;20.04;100.00;101963.22;4930167;29;25064;-73
2023/09/12 08:32:21;;;;;;;32.73;27.93;;;;;;;20.11;100.00;101973.19;4930545;29;20189;-73
2023/09/12 08:34:46;;;;;;;39.60;31.07;;;;;;;19.94;100.00;101983.94;4929878;29;20242;-73
2023/09/12 08:37:12;;;;;;;36.40;28.50;;;;;;;20.03;100.00;101980.63;4930960;29;20277;-73
2023/09/12 08:39:45;;;;;;;33.00;27.87;;;;;;;20.03;100.00;101975.19;4929790;29;20199;-72
2023/09/12 08:42:15;;;;;;;32.30;27.80;;;;;;;19.85;100.00;101967.09;4930474;29;20279;-73
2023/09/12 08:44:42;;;;;;;36.77;29.23;;;;;;;20.20;100.00;101969.06;4931086;29;20463;-73
2023/09/12 08:47:09;;;;;;;34.90;27.60;;;;;;;19.64;100.00;101892.19;4930057;29;25139;-73
2023/09/12 08:49:36;;;;;;;32.50;28.13;;;;;;;19.96;100.00;102003.56;4929435;29;20527;-73
2023/09/12 08:52:02;;;;;;;29.80;26.37;;;;;;;19.57;100.00;101954.91;4929867;29;20575;-73
2023/09/12 08:54:28;;;;;;;34.40;26.63;;;;;;;20.03;100.00;102020.66;4929542;29;25107;-73
2023/09/12 08:56:54;;;;;;;26.80;23.37;;;;;;;20.17;100.00;102021.28;4929967;29;20325;-73
2023/09/12 08:59:20;;;;;;;31.77;26.47;;;;;;;19.84;100.00;102042.47;4930865;29;20188;-72
2023/09/12 09:01:47;;;;;;;31.37;27.27;;;;;;;19.48;100.00;101993.56;4935524;29;20524;-74
2023/09/12 09:04:13;;;;;;;31.77;26.70;;;;;;;19.86;100.00;102006.88;4931646;29;20475;-73
2023/09/12 09:06:42;;;;;;;40.20;33.03;;;;;;;19.53;100.00;101970.06;4934438;29;25184;-73
2023/09/12 09:09:08;;;;;;;37.07;30.33;;;;;;;19.40;100.00;101972.94;4949120;28;20961;-74
2023/09/12 09:11:34;;;;;;;46.40;38.00;;;;;;;19.24;100.00;101976.28;4932416;29;25119;-73
2023/09/12 09:14:02;;;;;;;46.73;38.10;;;;;;;19.66;100.00;101996.25;4934236;29;25167;-73
2023/09/12 09:16:28;;;;;;;48.33;38.97;;;;;;;19.75;100.00;102007.66;4934037;29;25124;-73
2023/09/12 09:19:10;;;;;;;51.43;39.77;;;;;;;19.71;100.00;101984.69;4932610;29;20433;-72
2023/09/12 09:21:37;;;;;;;46.33;37.43;;;;;;;18.85;100.00;101914.03;4932491;29;20448;-74
2023/09/12 09:24:08;;;;;;;50.00;37.57;;;;;;;19.57;100.00;102003.88;4932798;29;25134;-72
2023/09/12 09:26:41;;;;;;;41.07;32.37;;;;;;;19.95;100.00;102018.25;4947486;28;25117;-72
2023/09/12 09:29:09;;;;;;;39.50;32.40;;;;;;;19.04;100.00;101905.88;4932297;29;20432;-73
2023/09/12 09:31:37;;;;;;;34.53;29.77;;;;;;;19.36;100.00;101918.16;4932155;29;20848;-73
2023/09/12 09:34:03;;;;;;;32.53;27.70;;;;;;;20.27;100.00;102046.84;4935057;28;20808;-73
2023/09/12 09:36:30;;;;;;;34.30;28.77;;;;;;;19.76;100.00;101953.00;4930704;29;20435;-73
2023/09/12 09:38:59;;;;;;;31.73;25.20;;;;;;;20.39;100.00;102059.66;4934758;29;25125;-73
2023/09/12 09:41:25;;;;;;;27.00;23.43;;;;;;;19.87;100.00;101970.41;4931405;29;20930;-74
2023/09/12 09:43:51;;;;;;;25.80;22.47;;;;;;;19.88;100.00;101985.69;4933550;29;20568;-73
2023/09/12 09:46:18;;;;;;;27.30;24.30;;;;;;;19.72;100.00;102002.69;4934171;29;20195;-73
2023/09/12 09:48:50;;;;;;;29.20;24.10;;;;;;;20.41;100.00;102123.78;4935173;29;20506;-73
2023/09/12 09:51:16;;;;;;;28.03;24.83;;;;;;;19.13;100.00;101965.13;4947092;28;25109;-73
2023/09/12 09:53:43;;;;;;;28.00;23.47;;;;;;;19.68;100.00;102015.09;4943534;28;20440;-73
2023/09/12 09:56:10;;;;;;;27.07;23.10;;;;;;;20.47;100.00;102122.00;4932325;29;20550;-73
2023/09/12 09:58:37;;;;;;;28.00;24.07;;;;;;;20.40;100.00;102119.41;4947258;28;20446;-73
2023/09/12 10:01:07;;;;;;;25.70;23.00;;;;;;;19.96;100.00;102022.63;4932530;29;25128;-73
2023/09/12 10:03:35;;;;;;;24.17;20.97;;;;;;;20.73;100.00;102102.53;4932063;28;25179;-74
2023/09/12 10:06:04;;;;;;;29.10;23.63;;;;;;;20.54;100.00;102092.81;4932391;29;20779;-73
2023/09/12 10:08:32;;;;;;;31.57;25.27;;;;;;;19.84;100.00;102007.09;4933190;29;20493;-73
2023/09/12 10:10:59;;;;;;;26.10;22.80;;;;;;;20.07;100.00;101995.41;4932573;29;25125;-73
2023/09/12 10:13:31;;;;;;;30.70;27.27;;;;;;;20.32;100.00;102104.22;4940875;29;20523;-73
2023/09/12 10:15:58;;;;;;;26.63;23.83;;;;;;;19.77;100.00;102011.81;4932542;29;20435;-73
2023/09/12 10:18:26;;;;;;;32.30;25.60;;;;;;;19.93;100.00;102023.94;4932267;29;25098;-73
2023/09/12 10:20:58;;;;;;;23.50;21.00;;;;;;;20.77;100.00;102120.09;4933354;29;25116;-73
2023/09/12 10:23:30;;;;;;;31.83;26.50;;;;;;;19.64;100.00;102004.66;4932489;29;20506;-73
2023/09/12 10:25:57;;;;;;;27.67;23.53;;;;;;;19.85;100.00;101988.88;4930000;29;25095;-73
2023/09/12 10:28:24;;;;;;;32.90;27.20;;;;;;;21.00;100.00;102123.88;4930557;29;25174;-73
2023/09/12 10:30:50;;;;;;;27.47;22.20;;;;;;;20.72;100.00;102016.34;4940888;29;25108;-73
2023/09/12 10:33:17;;;;;;;27.90;24.90;;;;;;;21.13;100.00;102115.44;4932977;29;25151;-73
2023/09/12 10:35:44;;;;;;;27.03;23.37;;;;;;;20.93;100.00;102109.53;4931051;29;25113;-73
2023/09/12 10:38:13;;;;;;;32.47;26.70;;;;;;;20.73;100.00;102137.97;4933043;29;25133;-74
2023/09/12 10:40:40;;;;;;;29.80;25.37;;;;;;;20.77;100.00;102151.94;4947280;28;25096;-73
2023/09/12 10:43:08;;;;;;;30.77;24.03;;;;;;;20.42;100.00;102065.47;4947026;28;25091;-73
2023/09/12 10:45:36;;;;;;;26.03;22.40;;;;;;;21.15;100.00;102142.50;4932484;29;20426;-73
2023/09/12 10:48:03;;;;;;;25.70;22.73;;;;;;;20.48;100.00;101995.56;4931430;29;20441;-73
2023/09/12 10:50:29;;;;;;;25.23;22.50;;;;;;;20.79;100.00;102021.69;4932756;29;20473;-73
2023/09/12 10:52:54;;;;;;;24.17;21.33;;;;;;;21.13;100.00;102014.50;4931796;29;20492;-73
2023/09/12 10:55:20;;;;;;;18.27;16.30;;;;;;;22.01;100.00;102079.84;4932497;29;25090;-73
2023/09/12 10:58:06;;;;;;;26.23;21.67;;;;;;;21.74;100.00;102047.69;4931682;29;25144;-73
2023/09/12 11:00:32;;;;;;;22.13;18.57;;;;;;;21.54;100.00;102088.25;4927971;29;25101;-72